sensor_id;sensor_type;location;lat;lon;timestamp;temperature;humidity
48988;DHT22;34799;51.440;-2.534;2023-04-24T00:02:08;9.10;99.90
48988;DHT22;34799;51.440;-2.534;2023-04-24T00:04:37;9.70;99.90
48988;DHT22;34799;51.440;-2.534;2023-04-24T00:07:07;8.90;99.90
48988;DHT22;34799;51.440;-2.534;2023-04-24T00:09:35;8.90;99.90
48988;DHT22;34799;51.440;-2.534;2023-04-24T00:12:02;8.90;99.90
48988;DHT22;34799;51.440;-2.534;2023-04-24T00:14:31;8.80;99.90
48988;DHT22;34799;51.440;-2.534;2023-04-24T00:16:59;8.80;99.90
48988;DHT22;34799;51.440;-2.534;2023-04-24T00:19:26;8.80;99.90
48988;DHT22;34799;51.440;-2.534;2023-04-24T00:21:54;8.80;99.90
48988;DHT22;34799;51.440;-2.534;2023-04-24T00:24:21;8.80;99.90
48988;DHT22;34799;51.440;-2.534;2023-04-24T00:26:49;8.70;99.90
48988;DHT22;34799;51.440;-2.534;2023-04-24T00:29:16;8.70;99.90
48988;DHT22;34799;51.440;-2.534;2023-04-24T00:31:43;8.60;99.90
48988;DHT22;34799;51.440;-2.534;2023-04-24T00:34:12;8.60;99.90
48988;DHT22;34799;51.440;-2.534;2023-04-24T00:36:39;8.60;99.90
48988;DHT22;34799;51.440;-2.534;2023-04-24T00:39:07;8.60;99.90
48988;DHT22;34799;51.440;-2.534;2023-04-24T00:41:37;9.20;99.90
48988;DHT22;34799;51.440;-2.534;2023-04-24T00:44:06;8.30;99.90
48988;DHT22;34799;51.440;-2.534;2023-04-24T00:46:33;8.20;99.90
48988;DHT22;34799;51.440;-2.534;2023-04-24T00:49:00;8.20;99.90
48988;DHT22;34799;51.440;-2.534;2023-04-24T00:51:27;8.20;99.90
48988;DHT22;34799;51.440;-2.534;2023-04-24T00:53:54;9.10;99.90
48988;DHT22;34799;51.440;-2.534;2023-04-24T00:56:22;8.10;99.90
48988;DHT22;34799;51.440;-2.534;2023-04-24T00:58:50;8.10;99.90
48988;DHT22;34799;51.440;-2.534;2023-04-24T01:01:21;8.40;99.90
48988;DHT22;34799;51.440;-2.534;2023-04-24T01:03:51;8.10;99.90
48988;DHT22;34799;51.440;-2.534;2023-04-24T01:06:20;8.10;99.90
48988;DHT22;34799;51.440;-2.534;2023-04-24T01:08:48;8.10;99.90
48988;DHT22;34799;51.440;-2.534;2023-04-24T01:11:16;9.00;99.90
48988;DHT22;34799;51.440;-2.534;2023-04-24T01:13:44;8.40;99.90
48988;DHT22;34799;51.440;-2.534;2023-04-24T01:16:14;8.00;99.90
48988;DHT22;34799;51.440;-2.534;2023-04-24T01:18:44;8.00;99.90
48988;DHT22;34799;51.440;-2.534;2023-04-24T01:21:14;8.00;99.90
48988;DHT22;34799;51.440;-2.534;2023-04-24T01:23:44;8.00;99.90
48988;DHT22;34799;51.440;-2.534;2023-04-24T01:26:13;8.00;99.90
48988;DHT22;34799;51.440;-2.534;2023-04-24T01:28:40;8.10;99.90
48988;DHT22;34799;51.440;-2.534;2023-04-24T01:31:09;8.10;99.90
48988;DHT22;34799;51.440;-2.534;2023-04-24T01:33:36;8.10;99.90
48988;DHT22;34799;51.440;-2.534;2023-04-24T01:36:03;8.10;99.90
48988;DHT22;34799;51.440;-2.534;2023-04-24T01:38:31;8.10;99.90
48988;DHT22;34799;51.440;-2.534;2023-04-24T01:40:59;8.20;99.90
48988;DHT22;34799;51.440;-2.534;2023-04-24T01:43:26;8.10;99.90
48988;DHT22;34799;51.440;-2.534;2023-04-24T01:45:55;8.10;99.90
48988;DHT22;34799;51.440;-2.534;2023-04-24T01:48:22;8.00;99.90
48988;DHT22;34799;51.440;-2.534;2023-04-24T01:50:49;8.00;99.90
48988;DHT22;34799;51.440;-2.534;2023-04-24T01:53:16;8.00;99.90
48988;DHT22;34799;51.440;-2.534;2023-04-24T01:55:43;8.00;99.90
48988;DHT22;34799;51.440;-2.534;2023-04-24T01:58:12;8.00;99.90
48988;DHT22;34799;51.440;-2.534;2023-04-24T02:00:42;8.00;99.90
48988;DHT22;34799;51.440;-2.534;2023-04-24T02:03:09;8.00;99.90
48988;DHT22;34799;51.440;-2.534;2023-04-24T02:05:36;8.10;99.90
48988;DHT22;34799;51.440;-2.534;2023-04-24T02:08:03;8.10;99.90
48988;DHT22;34799;51.440;-2.534;2023-04-24T02:10:30;8.40;99.90
48988;DHT22;34799;51.440;-2.534;2023-04-24T02:12:58;8.20;99.90
48988;DHT22;34799;51.440;-2.534;2023-04-24T02:15:28;8.40;99.90
48988;DHT22;34799;51.440;-2.534;2023-04-24T02:17:57;8.10;99.90
48988;DHT22;34799;51.440;-2.534;2023-04-24T02:20:24;7.90;99.90
48988;DHT22;34799;51.440;-2.534;2023-04-24T02:22:52;7.90;99.90
48988;DHT22;34799;51.440;-2.534;2023-04-24T02:25:19;8.90;99.90
48988;DHT22;34799;51.440;-2.534;2023-04-24T02:27:48;7.80;99.90
48988;DHT22;34799;51.440;-2.534;2023-04-24T02:30:15;7.80;99.90
48988;DHT22;34799;51.440;-2.534;2023-04-24T02:32:42;8.50;99.90
48988;DHT22;34799;51.440;-2.534;2023-04-24T02:35:10;7.80;99.90
48988;DHT22;34799;51.440;-2.534;2023-04-24T02:37:37;7.80;99.90
48988;DHT22;34799;51.440;-2.534;2023-04-24T02:40:05;7.80;99.90
48988;DHT22;34799;51.440;-2.534;2023-04-24T02:42:32;7.80;99.90
48988;DHT22;34799;51.440;-2.534;2023-04-24T02:45:01;7.80;99.90
48988;DHT22;34799;51.440;-2.534;2023-04-24T02:47:28;7.80;99.90
48988;DHT22;34799;51.440;-2.534;2023-04-24T02:49:55;9.20;99.90
48988;DHT22;34799;51.440;-2.534;2023-04-24T02:52:22;7.80;99.90
48988;DHT22;34799;51.440;-2.534;2023-04-24T02:54:49;7.80;99.90
48988;DHT22;34799;51.440;-2.534;2023-04-24T02:57:16;7.90;99.90
48988;DHT22;34799;51.440;-2.534;2023-04-24T02:59:43;7.90;99.90
48988;DHT22;34799;51.440;-2.534;2023-04-24T03:02:10;7.90;99.90
48988;DHT22;34799;51.440;-2.534;2023-04-24T03:04:40;8.50;99.90
48988;DHT22;34799;51.440;-2.534;2023-04-24T03:07:07;7.90;99.90
48988;DHT22;34799;51.440;-2.534;2023-04-24T03:09:34;7.80;99.90
48988;DHT22;34799;51.440;-2.534;2023-04-24T03:12:01;7.70;99.90
48988;DHT22;34799;51.440;-2.534;2023-04-24T03:14:28;8.30;99.90
48988;DHT22;34799;51.440;-2.534;2023-04-24T03:16:59;7.70;99.90
48988;DHT22;34799;51.440;-2.534;2023-04-24T03:19:26;7.70;99.90
48988;DHT22;34799;51.440;-2.534;2023-04-24T03:22:03;7.70;99.90
48988;DHT22;34799;51.440;-2.534;2023-04-24T03:24:30;7.70;99.90
48988;DHT22;34799;51.440;-2.534;2023-04-24T03:26:58;7.60;99.90
48988;DHT22;34799;51.440;-2.534;2023-04-24T03:29:51;7.60;99.90
48988;DHT22;34799;51.440;-2.534;2023-04-24T03:32:33;7.70;99.90
48988;DHT22;34799;51.440;-2.534;2023-04-24T03:35:01;7.80;99.90
48988;DHT22;34799;51.440;-2.534;2023-04-24T03:37:28;7.90;99.90
48988;DHT22;34799;51.440;-2.534;2023-04-24T03:40:09;7.80;99.90
48988;DHT22;34799;51.440;-2.534;2023-04-24T03:42:37;7.90;99.90
48988;DHT22;34799;51.440;-2.534;2023-04-24T03:45:06;8.70;99.90
48988;DHT22;34799;51.440;-2.534;2023-04-24T03:47:36;7.90;99.90
48988;DHT22;34799;51.440;-2.534;2023-04-24T03:50:05;7.90;99.90
48988;DHT22;34799;51.440;-2.534;2023-04-24T03:52:33;8.00;99.90
48988;DHT22;34799;51.440;-2.534;2023-04-24T03:55:00;8.00;99.90
48988;DHT22;34799;51.440;-2.534;2023-04-24T03:57:30;8.10;99.90
48988;DHT22;34799;51.440;-2.534;2023-04-24T04:00:15;8.10;99.90
48988;DHT22;34799;51.440;-2.534;2023-04-24T04:02:47;8.20;99.90
48988;DHT22;34799;51.440;-2.534;2023-04-24T04:05:14;9.40;99.90
48988;DHT22;34799;51.440;-2.534;2023-04-24T04:07:42;8.20;99.90
48988;DHT22;34799;51.440;-2.534;2023-04-24T04:10:10;8.30;99.90
48988;DHT22;34799;51.440;-2.534;2023-04-24T04:12:37;8.30;99.90
48988;DHT22;34799;51.440;-2.534;2023-04-24T04:15:04;8.30;99.90
48988;DHT22;34799;51.440;-2.534;2023-04-24T04:17:32;8.30;99.90
48988;DHT22;34799;51.440;-2.534;2023-04-24T04:20:02;8.30;99.90
48988;DHT22;34799;51.440;-2.534;2023-04-24T04:22:35;8.30;99.90
48988;DHT22;34799;51.440;-2.534;2023-04-24T04:25:06;8.40;99.90
48988;DHT22;34799;51.440;-2.534;2023-04-24T04:27:35;8.30;99.90
48988;DHT22;34799;51.440;-2.534;2023-04-24T04:30:08;9.40;99.90
48988;DHT22;34799;51.440;-2.534;2023-04-24T04:32:59;8.30;99.90
48988;DHT22;34799;51.440;-2.534;2023-04-24T04:35:27;8.20;99.90
48988;DHT22;34799;51.440;-2.534;2023-04-24T04:37:54;8.20;99.90
48988;DHT22;34799;51.440;-2.534;2023-04-24T04:40:27;8.20;99.90
48988;DHT22;34799;51.440;-2.534;2023-04-24T04:43:01;8.10;99.90
48988;DHT22;34799;51.440;-2.534;2023-04-24T04:45:34;8.10;99.90
48988;DHT22;34799;51.440;-2.534;2023-04-24T04:48:23;8.00;99.90
48988;DHT22;34799;51.440;-2.534;2023-04-24T04:50:50;8.00;99.90
48988;DHT22;34799;51.440;-2.534;2023-04-24T04:53:19;8.00;99.90
48988;DHT22;34799;51.440;-2.534;2023-04-24T04:55:47;8.30;99.90
48988;DHT22;34799;51.440;-2.534;2023-04-24T04:58:16;7.90;99.90
48988;DHT22;34799;51.440;-2.534;2023-04-24T05:00:45;7.90;99.90
48988;DHT22;34799;51.440;-2.534;2023-04-24T05:03:18;7.90;99.90
48988;DHT22;34799;51.440;-2.534;2023-04-24T05:05:48;7.80;99.90
48988;DHT22;34799;51.440;-2.534;2023-04-24T05:08:19;7.80;99.90
48988;DHT22;34799;51.440;-2.534;2023-04-24T05:10:54;7.70;99.90
48988;DHT22;34799;51.440;-2.534;2023-04-24T05:13:22;7.70;99.90
48988;DHT22;34799;51.440;-2.534;2023-04-24T05:15:56;7.60;99.90
48988;DHT22;34799;51.440;-2.534;2023-04-24T05:18:24;7.60;99.90
48988;DHT22;34799;51.440;-2.534;2023-04-24T05:20:51;7.60;99.90
48988;DHT22;34799;51.440;-2.534;2023-04-24T05:23:18;7.50;99.90
48988;DHT22;34799;51.440;-2.534;2023-04-24T05:25:49;7.50;99.90
48988;DHT22;34799;51.440;-2.534;2023-04-24T05:28:17;7.50;99.90
48988;DHT22;34799;51.440;-2.534;2023-04-24T05:30:51;7.50;99.90
48988;DHT22;34799;51.440;-2.534;2023-04-24T05:33:19;7.60;99.90
48988;DHT22;34799;51.440;-2.534;2023-04-24T05:35:46;7.60;99.90
48988;DHT22;34799;51.440;-2.534;2023-04-24T05:38:14;7.70;99.90
48988;DHT22;34799;51.440;-2.534;2023-04-24T05:40:45;7.70;99.90
48988;DHT22;34799;51.440;-2.534;2023-04-24T05:43:13;7.70;99.90
48988;DHT22;34799;51.440;-2.534;2023-04-24T05:45:40;7.70;99.90
48988;DHT22;34799;51.440;-2.534;2023-04-24T05:48:07;7.80;99.90
48988;DHT22;34799;51.440;-2.534;2023-04-24T05:50:34;7.70;99.90
48988;DHT22;34799;51.440;-2.534;2023-04-24T05:53:03;7.70;99.90
48988;DHT22;34799;51.440;-2.534;2023-04-24T05:55:33;8.20;99.90
48988;DHT22;34799;51.440;-2.534;2023-04-24T05:58:01;7.80;99.90
48988;DHT22;34799;51.440;-2.534;2023-04-24T06:00:28;7.90;99.90
48988;DHT22;34799;51.440;-2.534;2023-04-24T06:03:02;7.90;99.90
48988;DHT22;34799;51.440;-2.534;2023-04-24T06:05:30;8.00;99.90
48988;DHT22;34799;51.440;-2.534;2023-04-24T06:07:57;8.10;99.90
48988;DHT22;34799;51.440;-2.534;2023-04-24T06:10:31;8.20;99.90
48988;DHT22;34799;51.440;-2.534;2023-04-24T06:12:58;8.30;99.90
48988;DHT22;34799;51.440;-2.534;2023-04-24T06:15:30;8.50;99.90
48988;DHT22;34799;51.440;-2.534;2023-04-24T06:18:05;8.80;99.90
48988;DHT22;34799;51.440;-2.534;2023-04-24T06:20:33;8.70;99.90
48988;DHT22;34799;51.440;-2.534;2023-04-24T06:23:01;8.90;99.90
48988;DHT22;34799;51.440;-2.534;2023-04-24T06:25:28;9.00;99.90
48988;DHT22;34799;51.440;-2.534;2023-04-24T06:27:57;10.10;99.90
48988;DHT22;34799;51.440;-2.534;2023-04-24T06:30:24;9.10;99.90
48988;DHT22;34799;51.440;-2.534;2023-04-24T06:32:52;9.10;99.90
48988;DHT22;34799;51.440;-2.534;2023-04-24T06:35:19;9.20;99.90
48988;DHT22;34799;51.440;-2.534;2023-04-24T06:37:46;9.30;99.90
48988;DHT22;34799;51.440;-2.534;2023-04-24T06:40:13;9.30;99.90
48988;DHT22;34799;51.440;-2.534;2023-04-24T06:42:40;9.70;99.90
48988;DHT22;34799;51.440;-2.534;2023-04-24T06:45:10;9.40;99.90
48988;DHT22;34799;51.440;-2.534;2023-04-24T06:47:37;9.50;99.90
48988;DHT22;34799;51.440;-2.534;2023-04-24T06:50:05;9.90;99.90
48988;DHT22;34799;51.440;-2.534;2023-04-24T06:52:32;9.40;99.90
48988;DHT22;34799;51.440;-2.534;2023-04-24T06:55:03;9.40;99.90
48988;DHT22;34799;51.440;-2.534;2023-04-24T06:57:32;9.40;99.90
48988;DHT22;34799;51.440;-2.534;2023-04-24T06:59:59;9.40;99.90
48988;DHT22;34799;51.440;-2.534;2023-04-24T07:02:26;9.50;99.90
48988;DHT22;34799;51.440;-2.534;2023-04-24T07:04:53;9.50;99.90
48988;DHT22;34799;51.440;-2.534;2023-04-24T07:07:20;9.40;99.90
48988;DHT22;34799;51.440;-2.534;2023-04-24T07:09:49;9.40;99.90
48988;DHT22;34799;51.440;-2.534;2023-04-24T07:12:17;9.50;99.90
48988;DHT22;34799;51.440;-2.534;2023-04-24T07:14:47;10.20;99.90
48988;DHT22;34799;51.440;-2.534;2023-04-24T07:17:14;9.50;99.90
48988;DHT22;34799;51.440;-2.534;2023-04-24T07:19:43;9.60;99.90
48988;DHT22;34799;51.440;-2.534;2023-04-24T07:22:10;9.70;99.90
48988;DHT22;34799;51.440;-2.534;2023-04-24T07:24:45;9.70;99.90
48988;DHT22;34799;51.440;-2.534;2023-04-24T07:27:12;9.80;99.90
48988;DHT22;34799;51.440;-2.534;2023-04-24T07:29:41;9.90;99.90
48988;DHT22;34799;51.440;-2.534;2023-04-24T07:32:08;10.40;99.90
48988;DHT22;34799;51.440;-2.534;2023-04-24T07:34:36;10.30;99.90
48988;DHT22;34799;51.440;-2.534;2023-04-24T07:37:05;10.60;99.90
48988;DHT22;34799;51.440;-2.534;2023-04-24T07:39:32;10.10;99.90
48988;DHT22;34799;51.440;-2.534;2023-04-24T07:41:59;10.20;99.90
48988;DHT22;34799;51.440;-2.534;2023-04-24T07:44:26;10.40;99.90
48988;DHT22;34799;51.440;-2.534;2023-04-24T07:46:53;10.10;99.90
48988;DHT22;34799;51.440;-2.534;2023-04-24T07:49:20;9.90;99.90
48988;DHT22;34799;51.440;-2.534;2023-04-24T07:51:48;10.40;99.90
48988;DHT22;34799;51.440;-2.534;2023-04-24T07:54:17;9.90;99.90
48988;DHT22;34799;51.440;-2.534;2023-04-24T07:56:44;9.80;99.90
48988;DHT22;34799;51.440;-2.534;2023-04-24T07:59:11;9.90;99.90
48988;DHT22;34799;51.440;-2.534;2023-04-24T08:01:38;10.50;99.90
48988;DHT22;34799;51.440;-2.534;2023-04-24T08:04:05;10.30;99.90
48988;DHT22;34799;51.440;-2.534;2023-04-24T08:06:33;10.50;99.90
48988;DHT22;34799;51.440;-2.534;2023-04-24T08:09:00;10.70;99.90
48988;DHT22;34799;51.440;-2.534;2023-04-24T08:11:27;10.80;99.90
48988;DHT22;34799;51.440;-2.534;2023-04-24T08:13:56;11.30;99.90
48988;DHT22;34799;51.440;-2.534;2023-04-24T08:16:23;11.00;99.90
48988;DHT22;34799;51.440;-2.534;2023-04-24T08:18:53;11.20;99.90
48988;DHT22;34799;51.440;-2.534;2023-04-24T08:21:20;11.00;99.90
48988;DHT22;34799;51.440;-2.534;2023-04-24T08:23:47;11.10;99.90
48988;DHT22;34799;51.440;-2.534;2023-04-24T08:26:16;11.70;99.90
48988;DHT22;34799;51.440;-2.534;2023-04-24T08:28:43;11.40;99.90
48988;DHT22;34799;51.440;-2.534;2023-04-24T08:31:10;11.50;99.90
48988;DHT22;34799;51.440;-2.534;2023-04-24T08:33:37;11.60;99.90
48988;DHT22;34799;51.440;-2.534;2023-04-24T08:36:05;11.50;99.90
48988;DHT22;34799;51.440;-2.534;2023-04-24T08:38:33;11.50;99.90
48988;DHT22;34799;51.440;-2.534;2023-04-24T08:41:02;11.40;99.90
48988;DHT22;34799;51.440;-2.534;2023-04-24T08:43:33;11.30;99.90
48988;DHT22;34799;51.440;-2.534;2023-04-24T08:46:04;11.10;99.90
48988;DHT22;34799;51.440;-2.534;2023-04-24T08:48:33;11.10;99.90
48988;DHT22;34799;51.440;-2.534;2023-04-24T08:51:00;10.90;99.90
48988;DHT22;34799;51.440;-2.534;2023-04-24T08:53:29;11.30;99.90
48988;DHT22;34799;51.440;-2.534;2023-04-24T08:55:58;10.80;99.90
48988;DHT22;34799;51.440;-2.534;2023-04-24T08:58:25;10.80;99.90
48988;DHT22;34799;51.440;-2.534;2023-04-24T09:00:57;10.80;99.90
48988;DHT22;34799;51.440;-2.534;2023-04-24T09:03:27;11.50;99.90
48988;DHT22;34799;51.440;-2.534;2023-04-24T09:05:55;11.00;99.90
48988;DHT22;34799;51.440;-2.534;2023-04-24T09:08:25;10.70;99.90
48988;DHT22;34799;51.440;-2.534;2023-04-24T09:10:54;10.80;99.90
48988;DHT22;34799;51.440;-2.534;2023-04-24T09:13:21;10.80;99.90
48988;DHT22;34799;51.440;-2.534;2023-04-24T09:15:48;10.70;99.90
48988;DHT22;34799;51.440;-2.534;2023-04-24T09:18:17;10.60;99.90
48988;DHT22;34799;51.440;-2.534;2023-04-24T09:21:03;10.60;99.90
48988;DHT22;34799;51.440;-2.534;2023-04-24T09:23:32;10.60;99.90
48988;DHT22;34799;51.440;-2.534;2023-04-24T09:26:01;10.60;99.90
48988;DHT22;34799;51.440;-2.534;2023-04-24T09:28:35;11.00;99.90
48988;DHT22;34799;51.440;-2.534;2023-04-24T09:31:08;11.60;99.90
48988;DHT22;34799;51.440;-2.534;2023-04-24T09:33:36;10.50;99.90
48988;DHT22;34799;51.440;-2.534;2023-04-24T09:36:04;11.00;99.90
48988;DHT22;34799;51.440;-2.534;2023-04-24T09:38:36;10.40;99.90
48988;DHT22;34799;51.440;-2.534;2023-04-24T09:41:08;10.40;99.90
48988;DHT22;34799;51.440;-2.534;2023-04-24T09:43:37;10.60;99.90
48988;DHT22;34799;51.440;-2.534;2023-04-24T09:46:08;10.40;99.90
48988;DHT22;34799;51.440;-2.534;2023-04-24T09:48:38;10.40;99.90
48988;DHT22;34799;51.440;-2.534;2023-04-24T09:51:06;10.40;99.90
48988;DHT22;34799;51.440;-2.534;2023-04-24T09:53:33;10.20;99.90
48988;DHT22;34799;51.440;-2.534;2023-04-24T09:56:09;10.70;99.90
48988;DHT22;34799;51.440;-2.534;2023-04-24T09:58:36;10.00;99.90
48988;DHT22;34799;51.440;-2.534;2023-04-24T10:01:04;10.30;99.90
48988;DHT22;34799;51.440;-2.534;2023-04-24T10:03:32;9.70;99.90
48988;DHT22;34799;51.440;-2.534;2023-04-24T10:06:04;9.60;99.90
48988;DHT22;34799;51.440;-2.534;2023-04-24T10:08:36;9.50;99.90
48988;DHT22;34799;51.440;-2.534;2023-04-24T10:11:04;9.40;99.90
48988;DHT22;34799;51.440;-2.534;2023-04-24T10:13:32;9.20;99.90
48988;DHT22;34799;51.440;-2.534;2023-04-24T10:16:00;9.20;99.90
48988;DHT22;34799;51.440;-2.534;2023-04-24T10:18:29;10.50;99.90
48988;DHT22;34799;51.440;-2.534;2023-04-24T10:20:57;9.00;99.90
48988;DHT22;34799;51.440;-2.534;2023-04-24T10:23:28;9.00;99.90
48988;DHT22;34799;51.440;-2.534;2023-04-24T10:25:57;9.00;99.90
48988;DHT22;34799;51.440;-2.534;2023-04-24T10:28:26;9.00;99.90
48988;DHT22;34799;51.440;-2.534;2023-04-24T10:30:54;9.50;99.90
48988;DHT22;34799;51.440;-2.534;2023-04-24T10:33:22;9.40;99.90
48988;DHT22;34799;51.440;-2.534;2023-04-24T10:35:51;9.30;99.90
48988;DHT22;34799;51.440;-2.534;2023-04-24T10:38:23;9.30;99.90
48988;DHT22;34799;51.440;-2.534;2023-04-24T10:41:06;9.70;99.90
48988;DHT22;34799;51.440;-2.534;2023-04-24T10:43:34;9.30;99.90
48988;DHT22;34799;51.440;-2.534;2023-04-24T10:46:04;10.10;99.90
48988;DHT22;34799;51.440;-2.534;2023-04-24T10:48:33;9.10;99.90
48988;DHT22;34799;51.440;-2.534;2023-04-24T10:51:00;9.10;99.90
48988;DHT22;34799;51.440;-2.534;2023-04-24T10:53:29;9.10;99.90
48988;DHT22;34799;51.440;-2.534;2023-04-24T10:56:02;9.20;99.90
48988;DHT22;34799;51.440;-2.534;2023-04-24T10:58:45;9.40;99.90
48988;DHT22;34799;51.440;-2.534;2023-04-24T11:01:28;9.20;99.90
48988;DHT22;34799;51.440;-2.534;2023-04-24T11:03:57;8.80;99.90
48988;DHT22;34799;51.440;-2.534;2023-04-24T11:06:35;8.60;99.90
48988;DHT22;34799;51.440;-2.534;2023-04-24T11:09:08;8.70;99.90
48988;DHT22;34799;51.440;-2.534;2023-04-24T11:11:36;8.80;99.90
48988;DHT22;34799;51.440;-2.534;2023-04-24T11:14:07;9.40;99.90
48988;DHT22;34799;51.440;-2.534;2023-04-24T11:32:17;8.90;99.90
48988;DHT22;34799;51.440;-2.534;2023-04-24T11:34:51;9.40;99.90
48988;DHT22;34799;51.440;-2.534;2023-04-24T11:37:18;8.90;99.90
48988;DHT22;34799;51.440;-2.534;2023-04-24T11:39:45;8.90;99.90
48988;DHT22;34799;51.440;-2.534;2023-04-24T11:42:15;11.30;99.90
48988;DHT22;34799;51.440;-2.534;2023-04-24T11:44:43;9.10;99.90
48988;DHT22;34799;51.440;-2.534;2023-04-24T11:47:10;9.10;99.90
48988;DHT22;34799;51.440;-2.534;2023-04-24T11:49:37;9.30;99.90
48988;DHT22;34799;51.440;-2.534;2023-04-24T11:52:05;9.40;99.90
48988;DHT22;34799;51.440;-2.534;2023-04-24T11:54:32;9.50;99.90
48988;DHT22;34799;51.440;-2.534;2023-04-24T11:57:04;9.60;99.90
48988;DHT22;34799;51.440;-2.534;2023-04-24T11:59:36;9.60;99.90
48988;DHT22;34799;51.440;-2.534;2023-04-24T12:02:04;9.60;99.90
48988;DHT22;34799;51.440;-2.534;2023-04-24T12:04:40;9.60;99.90
48988;DHT22;34799;51.440;-2.534;2023-04-24T12:07:08;10.30;99.90
48988;DHT22;34799;51.440;-2.534;2023-04-24T12:12:14;9.90;99.90
48988;DHT22;34799;51.440;-2.534;2023-04-24T12:14:52;9.70;99.90
48988;DHT22;34799;51.440;-2.534;2023-04-24T12:20:06;9.50;99.90
48988;DHT22;34799;51.440;-2.534;2023-04-24T12:22:52;9.70;99.90
48988;DHT22;34799;51.440;-2.534;2023-04-24T12:25:29;9.80;99.90
48988;DHT22;34799;51.440;-2.534;2023-04-24T12:30:43;9.90;99.90
48988;DHT22;34799;51.440;-2.534;2023-04-24T12:33:11;9.90;99.90
48988;DHT22;34799;51.440;-2.534;2023-04-24T12:35:40;9.90;99.90
48988;DHT22;34799;51.440;-2.534;2023-04-24T12:38:10;10.00;99.90
48988;DHT22;34799;51.440;-2.534;2023-04-24T12:40:40;10.00;99.90
48988;DHT22;34799;51.440;-2.534;2023-04-24T12:43:18;10.70;99.90
48988;DHT22;34799;51.440;-2.534;2023-04-24T12:45:48;10.10;99.90
48988;DHT22;34799;51.440;-2.534;2023-04-24T12:48:15;10.20;99.90
48988;DHT22;34799;51.440;-2.534;2023-04-24T12:50:43;10.20;99.90
48988;DHT22;34799;51.440;-2.534;2023-04-24T12:53:12;10.20;99.90
48988;DHT22;34799;51.440;-2.534;2023-04-24T12:55:39;11.00;99.90
48988;DHT22;34799;51.440;-2.534;2023-04-24T12:58:07;10.60;99.90
48988;DHT22;34799;51.440;-2.534;2023-04-24T13:00:34;10.60;99.90
48988;DHT22;34799;51.440;-2.534;2023-04-24T13:03:01;10.70;99.90
48988;DHT22;34799;51.440;-2.534;2023-04-24T13:05:29;10.60;99.90
48988;DHT22;34799;51.440;-2.534;2023-04-24T13:07:58;10.70;99.90
48988;DHT22;34799;51.440;-2.534;2023-04-24T13:10:25;10.70;99.90
48988;DHT22;34799;51.440;-2.534;2023-04-24T13:12:52;11.00;99.90
48988;DHT22;34799;51.440;-2.534;2023-04-24T13:15:19;10.80;99.90
48988;DHT22;34799;51.440;-2.534;2023-04-24T13:17:46;10.70;99.90
48988;DHT22;34799;51.440;-2.534;2023-04-24T13:20:13;11.20;99.90
48988;DHT22;34799;51.440;-2.534;2023-04-24T13:22:40;10.60;99.90
48988;DHT22;34799;51.440;-2.534;2023-04-24T13:25:08;10.50;99.90
48988;DHT22;34799;51.440;-2.534;2023-04-24T13:27:38;10.70;99.90
48988;DHT22;34799;51.440;-2.534;2023-04-24T13:30:06;10.80;99.90
48988;DHT22;34799;51.440;-2.534;2023-04-24T13:32:34;10.80;99.90
48988;DHT22;34799;51.440;-2.534;2023-04-24T13:35:02;10.90;99.90
48988;DHT22;34799;51.440;-2.534;2023-04-24T13:37:31;11.10;99.90
48988;DHT22;34799;51.440;-2.534;2023-04-24T13:39:58;11.50;99.90
48988;DHT22;34799;51.440;-2.534;2023-04-24T13:42:25;11.40;99.90
48988;DHT22;34799;51.440;-2.534;2023-04-24T13:44:52;11.50;99.90
48988;DHT22;34799;51.440;-2.534;2023-04-24T13:47:20;11.60;99.90
48988;DHT22;34799;51.440;-2.534;2023-04-24T13:49:47;11.40;99.90
48988;DHT22;34799;51.440;-2.534;2023-04-24T13:52:16;11.60;99.90
48988;DHT22;34799;51.440;-2.534;2023-04-24T13:54:43;11.30;99.90
48988;DHT22;34799;51.440;-2.534;2023-04-24T13:57:10;11.40;99.90
48988;DHT22;34799;51.440;-2.534;2023-04-24T13:59:38;11.40;99.90
48988;DHT22;34799;51.440;-2.534;2023-04-24T14:02:05;11.30;99.90
48988;DHT22;34799;51.440;-2.534;2023-04-24T14:04:32;11.50;99.90
48988;DHT22;34799;51.440;-2.534;2023-04-24T14:06:59;11.40;99.90
48988;DHT22;34799;51.440;-2.534;2023-04-24T14:09:26;11.50;99.90
48988;DHT22;34799;51.440;-2.534;2023-04-24T14:11:55;11.50;99.90
48988;DHT22;34799;51.440;-2.534;2023-04-24T14:14:22;11.30;99.90
48988;DHT22;34799;51.440;-2.534;2023-04-24T14:16:49;11.90;99.90
48988;DHT22;34799;51.440;-2.534;2023-04-24T14:19:16;11.10;99.90
48988;DHT22;34799;51.440;-2.534;2023-04-24T14:21:43;11.00;99.90
48988;DHT22;34799;51.440;-2.534;2023-04-24T14:24:10;11.50;99.90
48988;DHT22;34799;51.440;-2.534;2023-04-24T14:26:37;10.60;99.90
48988;DHT22;34799;51.440;-2.534;2023-04-24T14:29:04;10.80;99.90
48988;DHT22;34799;51.440;-2.534;2023-04-24T14:31:37;10.10;99.90
48988;DHT22;34799;51.440;-2.534;2023-04-24T14:34:04;10.30;99.90
48988;DHT22;34799;51.440;-2.534;2023-04-24T14:36:31;9.60;99.90
48988;DHT22;34799;51.440;-2.534;2023-04-24T14:38:58;9.50;99.90
48988;DHT22;34799;51.440;-2.534;2023-04-24T14:41:27;10.10;99.90
48988;DHT22;34799;51.440;-2.534;2023-04-24T14:43:54;9.30;99.90
48988;DHT22;34799;51.440;-2.534;2023-04-24T14:46:21;9.20;99.90
48988;DHT22;34799;51.440;-2.534;2023-04-24T14:48:48;9.20;99.90
48988;DHT22;34799;51.440;-2.534;2023-04-24T14:51:15;9.10;99.90
48988;DHT22;34799;51.440;-2.534;2023-04-24T14:53:42;9.00;99.90
48988;DHT22;34799;51.440;-2.534;2023-04-24T14:56:10;8.90;99.90
48988;DHT22;34799;51.440;-2.534;2023-04-24T14:58:37;8.80;99.90
48988;DHT22;34799;51.440;-2.534;2023-04-24T15:01:05;9.50;99.90
48988;DHT22;34799;51.440;-2.534;2023-04-24T15:03:33;8.80;99.90
48988;DHT22;34799;51.440;-2.534;2023-04-24T15:06:00;8.50;99.90
48988;DHT22;34799;51.440;-2.534;2023-04-24T15:08:28;8.30;99.90
48988;DHT22;34799;51.440;-2.534;2023-04-24T15:10:55;8.20;99.90
48988;DHT22;34799;51.440;-2.534;2023-04-24T15:13:22;8.30;99.90
48988;DHT22;34799;51.440;-2.534;2023-04-24T15:15:49;8.60;99.90
48988;DHT22;34799;51.440;-2.534;2023-04-24T15:18:18;8.00;99.90
48988;DHT22;34799;51.440;-2.534;2023-04-24T15:20:45;8.00;99.90
48988;DHT22;34799;51.440;-2.534;2023-04-24T15:23:12;7.90;99.90
48988;DHT22;34799;51.440;-2.534;2023-04-24T15:25:40;8.40;99.90
48988;DHT22;34799;51.440;-2.534;2023-04-24T15:28:07;7.50;99.90
48988;DHT22;34799;51.440;-2.534;2023-04-24T15:30:34;7.80;99.90
48988;DHT22;34799;51.440;-2.534;2023-04-24T15:33:01;7.70;99.90
48988;DHT22;34799;51.440;-2.534;2023-04-24T15:35:28;7.70;99.90
48988;DHT22;34799;51.440;-2.534;2023-04-24T15:37:57;7.80;99.90
48988;DHT22;34799;51.440;-2.534;2023-04-24T15:40:24;7.80;99.90
48988;DHT22;34799;51.440;-2.534;2023-04-24T15:42:51;7.70;99.90
48988;DHT22;34799;51.440;-2.534;2023-04-24T15:45:18;7.90;99.90
48988;DHT22;34799;51.440;-2.534;2023-04-24T15:47:46;7.70;99.90
48988;DHT22;34799;51.440;-2.534;2023-04-24T15:50:13;7.80;99.90
48988;DHT22;34799;51.440;-2.534;2023-04-24T15:52:43;7.80;99.90
48988;DHT22;34799;51.440;-2.534;2023-04-24T15:55:11;7.70;99.90
48988;DHT22;34799;51.440;-2.534;2023-04-24T15:57:38;7.70;99.90
48988;DHT22;34799;51.440;-2.534;2023-04-24T16:00:06;7.60;99.90
48988;DHT22;34799;51.440;-2.534;2023-04-24T16:02:38;7.70;99.90